Elkhart Lake, Wisconsin
Current Conditions -  °F | °C
As of 7:33 AM on Sunday 21 Dec 2014 (Local Time) from KSBM Reporting Station
Haze Haze  
Wind Chill: 26°   Ceiling: 1100
Heat Index: 32°   Visibility: 6mi
Dew Point: 27°   Wind: 7mph
Humidity: 82%   Direction: 180°S
Pressure: 30.16"   Gusts: NA
Location:  43.83°N, 88.02°W
Report Text: KSBM 211333Z AUTO 18006KT 6SM HZ OVC011 00/M03 A3016 RMK AO2 T00001028
Loading
Personal Weather Stations






























Interactive Weather Map New forecast layout! Learn more

10-Day Weather Forecast

Advertisements
Track Severe Weather on mobile